Language: 


Des rapports , des résumés tant et plus, au choix de chacun....


Données Historiques de Météogheer
Journalier Rapport pour Mars 1, 2018 Unitée:  Les deux    Impériale   Métrique
Suivant Jour »
Journalier Hebdomadaire Mensuel Annuel Sur mesure
  Max: Min: Moyenne:
Température: 34.5 °F /  1.4 °C 22.1 °F /  -5.5 °C 28.4 °F /  -2 °C
Point de rosée: 14 °F /  -10.0 °C 5 °F /  -15.0 °C 9.3 °F /  -12.6 °C
Humidité: 54% 38% 45%
Vent: 22.1mph /  35.6km/h - 11.8mph /  19km/h
Rafales: 23.9mph /  38.5km/h - -
Vent- - ENE
Pression: 29.7 in /  1007.0 hPa 29.4 in /  994.1 hPa -
Pluie: 0 in /  0.0 mm    
Historical Graphs
 
 
Données tabulaires pour Mars 1, 2018
Heure Température Point de rosée Pression Vent Vent Rafales Humidité Pluie Taux (Horaire) Conditions
00:03 22.6 °F /  -5.2 °C 5 °F /  -15.0 °C 29.7in /  1007.0hPa East 19.9mph /  32.0km/h 19.9mph /  32.0km/h 47% 0in /  0.0mm
00:08 22.6 °F /  -5.2 °C 5 °F /  -15.0 °C 29.7in /  1007.0hPa NE 11mph /  17.7km/h 19.9mph /  32.0km/h 47% 0in /  0.0mm
00:13 22.6 °F /  -5.2 °C 5 °F /  -15.0 °C 29.7in /  1007.0hPa ENE 13.4mph /  21.6km/h 19.9mph /  32.0km/h 47% 0in /  0.0mm
00:18 22.6 °F /  -5.2 °C 5 °F /  -15.0 °C 29.7in /  1007.0hPa ENE 9.4mph /  15.1km/h 23mph /  37.0km/h 47% 0in /  0.0mm
00:23 22.6 °F /  -5.2 °C 5 °F /  -15.0 °C 29.7in /  1007.0hPa ENE 9.2mph /  14.8km/h 23mph /  37.0km/h 47% 0in /  0.0mm
00:28 22.6 °F /  -5.2 °C 5 °F /  -15.0 °C 29.7in /  1007.0hPa ENE 10.3mph /  16.6km/h 17.7mph /  28.5km/h 47% 0in /  0.0mm
00:33 22.6 °F /  -5.2 °C 5 °F /  -15.0 °C 29.7in /  1007.0hPa ENE 13.2mph /  21.2km/h 17.7mph /  28.5km/h 47% 0in /  0.0mm
00:38 22.6 °F /  -5.2 °C 5 °F /  -15.0 °C 29.7in /  1007.0hPa NE 10.1mph /  16.3km/h 19.9mph /  32.0km/h 47% 0in /  0.0mm
00:43 22.6 °F /  -5.2 °C 5 °F /  -15.0 °C 29.7in /  1007.0hPa East 11.2mph /  18.0km/h 19.9mph /  32.0km/h 47% 0in /  0.0mm
00:49 22.6 °F /  -5.2 °C 5 °F /  -15.0 °C 29.7in /  1007.0hPa ENE 13.9mph /  22.4km/h 19.9mph /  32.0km/h 47% 0in /  0.0mm
00:54 22.6 °F /  -5.2 °C 5 °F /  -15.0 °C 29.7in /  1007.0hPa East 14.3mph /  23.0km/h 17.7mph /  28.5km/h 47% 0in /  0.0mm
00:59 22.6 °F /  -5.2 °C 5 °F /  -15.0 °C 29.7in /  1007.0hPa East 9.6mph /  15.4km/h 17.7mph /  28.5km/h 47% 0in /  0.0mm
01:04 22.5 °F /  -5.3 °C 5 °F /  -15.0 °C 29.7in /  1007.0hPa ENE 12.3mph /  19.8km/h 15.2mph /  24.5km/h 47% 0in /  0.0mm
01:09 22.5 °F /  -5.3 °C 5 °F /  -15.0 °C 29.7in /  1007.0hPa ENE 14.5mph /  23.3km/h 17.7mph /  28.5km/h 47% 0in /  0.0mm
01:14 22.5 °F /  -5.3 °C 5 °F /  -15.0 °C 29.7in /  1007.0hPa East 11.9mph /  19.1km/h 19.9mph /  32.0km/h 47% 0in /  0.0mm
01:19 22.5 °F /  -5.3 °C 5 °F /  -15.0 °C 29.7in /  1007.0hPa NE 11.4mph /  18.3km/h 19.9mph /  32.0km/h 47% 0in /  0.0mm
01:24 22.5 °F /  -5.3 °C 5 °F /  -15.0 °C 29.7in /  1007.0hPa NNE 16.8mph /  27.0km/h 17.4mph /  28.0km/h 47% 0in /  0.0mm
01:29 22.5 °F /  -5.3 °C 5 °F /  -15.0 °C 29.7in /  1007.0hPa East 13.4mph /  21.6km/h 19.9mph /  32.0km/h 47% 0in /  0.0mm
01:34 22.5 °F /  -5.3 °C 5 °F /  -15.0 °C 29.7in /  1007.0hPa East 7.8mph /  12.6km/h 19.9mph /  32.0km/h 47% 0in /  0.0mm
01:39 22.5 °F /  -5.3 °C 5 °F /  -15.0 °C 29.7in /  1007.0hPa East 9.8mph /  15.8km/h 15.4mph /  24.8km/h 48% 0in /  0.0mm
01:44 22.5 °F /  -5.3 °C 5 °F /  -15.0 °C 29.7in /  1006.0hPa East 17mph /  27.4km/h 17mph /  27.4km/h 48% 0in /  0.0mm
01:49 22.5 °F /  -5.3 °C 5 °F /  -15.0 °C 29.7in /  1006.0hPa ENE 9.2mph /  14.8km/h 19.7mph /  31.7km/h 48% 0in /  0.0mm
01:54 22.3 °F /  -5.4 °C 5 °F /  -15.0 °C 29.7in /  1006.0hPa East 14.8mph /  23.8km/h 19.7mph /  31.7km/h 48% 0in /  0.0mm
01:59 22.3 °F /  -5.4 °C 5 °F /  -15.0 °C 29.7in /  1006.0hPa ENE 10.5mph /  16.9km/h 20.4mph /  32.8km/h 48% 0in /  0.0mm
02:04 22.3 °F /  -5.4 °C 5 °F /  -15.0 °C 29.7in /  1006.0hPa ENE 13.6mph /  21.9km/h 20.4mph /  32.8km/h 48% 0in /  0.0mm
02:09 22.1 °F /  -5.5 °C 5 °F /  -15.0 °C 29.7in /  1006.0hPa ENE 15.4mph /  24.8km/h 19.9mph /  32.0km/h 48% 0in /  0.0mm
02:14 22.1 °F /  -5.5 °C 5 °F /  -15.0 °C 29.7in /  1006.0hPa ENE 13.2mph /  21.2km/h 19.9mph /  32.0km/h 48% 0in /  0.0mm
02:19 22.1 °F /  -5.5 °C 5 °F /  -15.0 °C 29.7in /  1006.0hPa East 13.2mph /  21.2km/h 17.4mph /  28.0km/h 48% 0in /  0.0mm
02:24 22.1 °F /  -5.5 °C 5 °F /  -15.0 °C 29.7in /  1006.0hPa NE 11mph /  17.7km/h 17.7mph /  28.5km/h 48% 0in /  0.0mm
02:29 22.1 °F /  -5.5 °C 5 °F /  -15.0 °C 29.7in /  1006.0hPa East 12.8mph /  20.6km/h 19.5mph /  31.4km/h 48% 0in /  0.0mm
02:34 22.1 °F /  -5.5 °C 5 °F /  -15.0 °C 29.7in /  1006.0hPa East 17.7mph /  28.5km/h 19.5mph /  31.4km/h 48% 0in /  0.0mm
02:39 22.1 °F /  -5.5 °C 5 °F /  -15.0 °C 29.7in /  1006.0hPa East 22.1mph /  35.6km/h 22.1mph /  35.6km/h 48% 0in /  0.0mm
02:44 22.1 °F /  -5.5 °C 5 °F /  -15.0 °C 29.7in /  1006.0hPa ENE 13mph /  20.9km/h 22.1mph /  35.6km/h 49% 0in /  0.0mm
02:49 22.1 °F /  -5.5 °C 5 °F /  -15.0 °C 29.7in /  1006.0hPa East 13.2mph /  21.2km/h 17.7mph /  28.5km/h 49% 0in /  0.0mm
02:54 22.1 °F /  -5.5 °C 5 °F /  -15.0 °C 29.7in /  1006.0hPa East 11.4mph /  18.3km/h 19.9mph /  32.0km/h 49% 0in /  0.0mm
02:59 22.3 °F /  -5.4 °C 5 °F /  -15.0 °C 29.7in /  1005.0hPa NNE 16.3mph /  26.2km/h 19.9mph /  32.0km/h 49% 0in /  0.0mm
03:05 22.3 °F /  -5.4 °C 5 °F /  -15.0 °C 29.7in /  1005.0hPa NNE 13.2mph /  21.2km/h 17.4mph /  28.0km/h 49% 0in /  0.0mm
03:10 22.3 °F /  -5.4 °C 5 °F /  -15.0 °C 29.7in /  1005.0hPa ENE 12.5mph /  20.1km/h 17.7mph /  28.5km/h 49% 0in /  0.0mm
03:15 22.3 °F /  -5.4 °C 5 °F /  -15.0 °C 29.7in /  1005.0hPa ENE 8.9mph /  14.3km/h 17.7mph /  28.5km/h 49% 0in /  0.0mm
03:20 22.3 °F /  -5.4 °C 5 °F /  -15.0 °C 29.7in /  1005.0hPa NE 17.7mph /  28.5km/h 17.7mph /  28.5km/h 49% 0in /  0.0mm
03:25 22.3 °F /  -5.4 °C 5 °F /  -15.0 °C 29.7in /  1005.0hPa NE 15.2mph /  24.5km/h 18.6mph /  29.9km/h 49% 0in /  0.0mm
03:30 22.5 °F /  -5.3 °C 5 °F /  -15.0 °C 29.7in /  1005.0hPa NE 14.5mph /  23.3km/h 18.6mph /  29.9km/h 49% 0in /  0.0mm
03:35 22.5 °F /  -5.3 °C 5 °F /  -15.0 °C 29.7in /  1005.0hPa ENE 13.9mph /  22.4km/h 17.7mph /  28.5km/h 49% 0in /  0.0mm
03:40 22.5 °F /  -5.3 °C 5 °F /  -15.0 °C 29.7in /  1005.0hPa ENE 13mph /  20.9km/h 17.9mph /  28.8km/h 49% 0in /  0.0mm
03:45 22.5 °F /  -5.3 °C 5 °F /  -15.0 °C 29.7in /  1005.0hPa ENE 10.7mph /  17.2km/h 20.1mph /  32.3km/h 49% 0in /  0.0mm
03:50 22.5 °F /  -5.3 °C 5 °F /  -15.0 °C 29.7in /  1005.0hPa East 15.4mph /  24.8km/h 22.4mph /  36.0km/h 49% 0in /  0.0mm
03:55 22.5 °F /  -5.3 °C 5 °F /  -15.0 °C 29.7in /  1005.0hPa ENE 12.5mph /  20.1km/h 22.4mph /  36.0km/h 49% 0in /  0.0mm
04:00 22.5 °F /  -5.3 °C 5 °F /  -15.0 °C 29.6in /  1003.9hPa East 13.9mph /  22.4km/h 19.7mph /  31.7km/h 49% 0in /  0.0mm
04:06 22.5 °F /  -5.3 °C 5 °F /  -15.0 °C 29.6in /  1003.9hPa ENE 10.5mph /  16.9km/h 19.7mph /  31.7km/h 49% 0in /  0.0mm
04:11 22.5 °F /  -5.3 °C 5 °F /  -15.0 °C 29.6in /  1003.9hPa East 11mph /  17.7km/h 15.4mph /  24.8km/h 49% 0in /  0.0mm
04:16 22.6 °F /  -5.2 °C 5 °F /  -15.0 °C 29.6in /  1003.9hPa NNE 15.2mph /  24.5km/h 17.9mph /  28.8km/h 49% 0in /  0.0mm
04:21 22.6 °F /  -5.2 °C 5 °F /  -15.0 °C 29.6in /  1003.9hPa East 14.8mph /  23.8km/h 17.9mph /  28.8km/h 49% 0in /  0.0mm
04:26 22.6 °F /  -5.2 °C 5 °F /  -15.0 °C 29.6in /  1003.9hPa ENE 13.2mph /  21.2km/h 17.7mph /  28.5km/h 49% 0in /  0.0mm
04:31 22.6 °F /  -5.2 °C 5 °F /  -15.0 °C 29.6in /  1003.9hPa NE 11.2mph /  18.0km/h 17.7mph /  28.5km/h 49% 0in /  0.0mm
04:36 22.6 °F /  -5.2 °C 5 °F /  -15.0 °C 29.6in /  1003.9hPa ENE 10.1mph /  16.3km/h 19.2mph /  30.9km/h 49% 0in /  0.0mm
04:41 22.6 °F /  -5.2 °C 5 °F /  -15.0 °C 29.6in /  1003.9hPa NE 10.7mph /  17.2km/h 22.8mph /  36.7km/h 49% 0in /  0.0mm
04:46 22.6 °F /  -5.2 °C 5 °F /  -15.0 °C 29.6in /  1002.9hPa East 7.6mph /  12.2km/h 22.8mph /  36.7km/h 49% 0in /  0.0mm
04:51 22.8 °F /  -5.1 °C 5 °F /  -15.0 °C 29.6in /  1002.9hPa ENE 9.4mph /  15.1km/h 16.3mph /  26.2km/h 49% 0in /  0.0mm
04:56 22.8 °F /  -5.1 °C 5 °F /  -15.0 °C 29.6in /  1002.9hPa NE 11.2mph /  18.0km/h 20.1mph /  32.3km/h 49% 0in /  0.0mm
05:01 22.8 °F /  -5.1 °C 5 °F /  -15.0 °C 29.6in /  1002.9hPa East 11.9mph /  19.1km/h 20.1mph /  32.3km/h 49% 0in /  0.0mm
05:06 22.8 °F /  -5.1 °C 5 °F /  -15.0 °C 29.6in /  1002.9hPa East 12.8mph /  20.6km/h 17.7mph /  28.5km/h 49% 0in /  0.0mm
05:11 22.8 °F /  -5.1 °C 5 °F /  -15.0 °C 29.6in /  1002.9hPa ENE 10.5mph /  16.9km/h 19.7mph /  31.7km/h 48% 0in /  0.0mm
05:16 22.8 °F /  -5.1 °C 5 °F /  -15.0 °C 29.6in /  1002.9hPa East 13.2mph /  21.2km/h 19.7mph /  31.7km/h 48% 0in /  0.0mm
05:21 22.8 °F /  -5.1 °C 5 °F /  -15.0 °C 29.6in /  1002.9hPa ENE 9.6mph /  15.4km/h 17.9mph /  28.8km/h 49% 0in /  0.0mm
05:26 22.8 °F /  -5.1 °C 5 °F /  -15.0 °C 29.6in /  1002.9hPa East 12.8mph /  20.6km/h 15.2mph /  24.5km/h 49% 0in /  0.0mm
05:31 22.8 °F /  -5.1 °C 5 °F /  -15.0 °C 29.6in /  1002.9hPa East 12.8mph /  20.6km/h 17.2mph /  27.7km/h 49% 0in /  0.0mm
05:36 22.8 °F /  -5.1 °C 5 °F /  -15.0 °C 29.6in /  1002.9hPa NE 11mph /  17.7km/h 18.8mph /  30.2km/h 49% 0in /  0.0mm
05:41 22.8 °F /  -5.1 °C 5 °F /  -15.0 °C 29.6in /  1002.9hPa ESE 10.5mph /  16.9km/h 18.8mph /  30.2km/h 49% 0in /  0.0mm
05:46 23 °F /  -5.0 °C 5 °F /  -15.0 °C 29.6in /  1002.9hPa ENE 8.5mph /  13.7km/h 18.1mph /  29.1km/h 49% 0in /  0.0mm
05:51 22.8 °F /  -5.1 °C 6.8 °F /  -14.0 °C 29.6in /  1002.9hPa ENE 7.6mph /  12.2km/h 16.1mph /  25.9km/h 50% 0in /  0.0mm
05:56 22.8 °F /  -5.1 °C 6.8 °F /  -14.0 °C 29.6in /  1002.9hPa East 10.1mph /  16.3km/h 19mph /  30.6km/h 50% 0in /  0.0mm
06:01 22.8 °F /  -5.1 °C 6.8 °F /  -14.0 °C 29.6in /  1001.9hPa East 8.5mph /  13.7km/h 19mph /  30.6km/h 51% 0in /  0.0mm
06:06 22.8 °F /  -5.1 °C 6.8 °F /  -14.0 °C 29.6in /  1001.9hPa ENE 12.3mph /  19.8km/h 17.9mph /  28.8km/h 51% 0in /  0.0mm
06:11 22.8 °F /  -5.1 °C 6.8 °F /  -14.0 °C 29.6in /  1001.9hPa East 7.8mph /  12.6km/h 17.4mph /  28.0km/h 51% 0in /  0.0mm
06:16 22.8 °F /  -5.1 °C 6.8 °F /  -14.0 °C 29.6in /  1002.9hPa ENE 10.3mph /  16.6km/h 17.7mph /  28.5km/h 52% 0in /  0.0mm
06:21 22.8 °F /  -5.1 °C 6.8 °F /  -14.0 °C 29.6in /  1002.9hPa ENE 11mph /  17.7km/h 17.7mph /  28.5km/h 52% 0in /  0.0mm
06:27 22.8 °F /  -5.1 °C 6.8 °F /  -14.0 °C 29.6in /  1002.9hPa ENE 12.8mph /  20.6km/h 16.1mph /  25.9km/h 52% 0in /  0.0mm
06:32 22.8 °F /  -5.1 °C 6.8 °F /  -14.0 °C 29.6in /  1001.9hPa NE 10.5mph /  16.9km/h 17.7mph /  28.5km/h 52% 0in /  0.0mm
06:37 22.8 °F /  -5.1 °C 6.8 °F /  -14.0 °C 29.6in /  1001.9hPa East 11.9mph /  19.1km/h 17.7mph /  28.5km/h 52% 0in /  0.0mm
06:42 22.8 °F /  -5.1 °C 6.8 °F /  -14.0 °C 29.6in /  1001.9hPa NE 12.5mph /  20.1km/h 20.4mph /  32.8km/h 52% 0in /  0.0mm
06:47 22.8 °F /  -5.1 °C 6.8 °F /  -14.0 °C 29.6in /  1002.9hPa NE 7.8mph /  12.6km/h 20.4mph /  32.8km/h 53% 0in /  0.0mm
06:52 22.8 °F /  -5.1 °C 6.8 °F /  -14.0 °C 29.6in /  1002.9hPa East 10.1mph /  16.3km/h 17.4mph /  28.0km/h 53% 0in /  0.0mm
06:57 23 °F /  -5.0 °C 6.8 °F /  -14.0 °C 29.6in /  1002.9hPa East 12.3mph /  19.8km/h 17.4mph /  28.0km/h 52% 0in /  0.0mm
07:02 23 °F /  -5.0 °C 6.8 °F /  -14.0 °C 29.6in /  1001.9hPa East 11mph /  17.7km/h 19.2mph /  30.9km/h 51% 0in /  0.0mm
07:07 23.2 °F /  -4.9 °C 6.8 °F /  -14.0 °C 29.6in /  1001.9hPa ENE 13.9mph /  22.4km/h 17.7mph /  28.5km/h 50% 0in /  0.0mm
07:12 23.4 °F /  -4.8 °C 6.8 °F /  -14.0 °C 29.6in /  1001.9hPa NE 15.4mph /  24.8km/h 15.4mph /  24.8km/h 50% 0in /  0.0mm
07:17 23.4 °F /  -4.8 °C 6.8 °F /  -14.0 °C 29.6in /  1001.9hPa East 10.7mph /  17.2km/h 17.4mph /  28.0km/h 49% 0in /  0.0mm
07:22 23.4 °F /  -4.8 °C 6.8 °F /  -14.0 °C 29.6in /  1001.9hPa East 17mph /  27.4km/h 17.4mph /  28.0km/h 49% 0in /  0.0mm
07:27 23.4 °F /  -4.8 °C 6.8 °F /  -14.0 °C 29.6in /  1001.9hPa ENE 12.5mph /  20.1km/h 17mph /  27.4km/h 49% 0in /  0.0mm
07:32 23.4 °F /  -4.8 °C 6.8 °F /  -14.0 °C 29.6in /  1001.9hPa ENE 13mph /  20.9km/h 23.3mph /  37.5km/h 49% 0in /  0.0mm
07:38 23.5 °F /  -4.7 °C 6.8 °F /  -14.0 °C 29.6in /  1001.9hPa NE 10.1mph /  16.3km/h 23.3mph /  37.5km/h 49% 0in /  0.0mm
07:43 23.5 °F /  -4.7 °C 6.8 °F /  -14.0 °C 29.6in /  1001.9hPa East 10.5mph /  16.9km/h 14.3mph /  23.0km/h 49% 0in /  0.0mm
07:48 23.5 °F /  -4.7 °C 6.8 °F /  -14.0 °C 29.6in /  1000.9hPa East 10.1mph /  16.3km/h 16.3mph /  26.2km/h 49% 0in /  0.0mm
07:53 23.5 °F /  -4.7 °C 6.8 °F /  -14.0 °C 29.6in /  1000.9hPa East 14.1mph /  22.7km/h 16.3mph /  26.2km/h 48% 0in /  0.0mm
07:58 23.5 °F /  -4.7 °C 6.8 °F /  -14.0 °C 29.6in /  1000.9hPa ENE 12.8mph /  20.6km/h 16.3mph /  26.2km/h 48% 0in /  0.0mm
08:03 23.5 °F /  -4.7 °C 6.8 °F /  -14.0 °C 29.6in /  1000.9hPa East 9.6mph /  15.4km/h 15.4mph /  24.8km/h 48% 0in /  0.0mm
08:08 23.7 °F /  -4.6 °C 6.8 °F /  -14.0 °C 29.6in /  1000.9hPa ENE 12.3mph /  19.8km/h 15.4mph /  24.8km/h 48% 0in /  0.0mm
08:13 23.7 °F /  -4.6 °C 6.8 °F /  -14.0 °C 29.6in /  1000.9hPa NE 12.5mph /  20.1km/h 17.7mph /  28.5km/h 48% 0in /  0.0mm
08:18 23.7 °F /  -4.6 °C 6.8 °F /  -14.0 °C 29.6in /  1000.9hPa ENE 11.4mph /  18.3km/h 19.5mph /  31.4km/h 48% 0in /  0.0mm
08:23 23.9 °F /  -4.5 °C 6.8 °F /  -14.0 °C 29.6in /  1000.9hPa NE 14.5mph /  23.3km/h 19.5mph /  31.4km/h 48% 0in /  0.0mm
08:28 23.9 °F /  -4.5 °C 6.8 °F /  -14.0 °C 29.6in /  1000.9hPa East 17.2mph /  27.7km/h 17.2mph /  27.7km/h 48% 0in /  0.0mm
08:33 23.9 °F /  -4.5 °C 6.8 °F /  -14.0 °C 29.6in /  1001.9hPa East 17.4mph /  28.0km/h 17.4mph /  28.0km/h 48% 0in /  0.0mm
08:38 23.9 °F /  -4.5 °C 6.8 °F /  -14.0 °C 29.6in /  1001.9hPa ENE 12.3mph /  19.8km/h 19.2mph /  30.9km/h 49% 0in /  0.0mm
08:43 23.7 °F /  -4.6 °C 6.8 °F /  -14.0 °C 29.6in /  1001.9hPa ESE 10.7mph /  17.2km/h 19.2mph /  30.9km/h 50% 0in /  0.0mm
08:48 23.7 °F /  -4.6 °C 8.6 °F /  -13.0 °C 29.6in /  1001.9hPa ENE 12.8mph /  20.6km/h 17mph /  27.4km/h 52% 0in /  0.0mm
08:53 23.7 °F /  -4.6 °C 8.6 °F /  -13.0 °C 29.6in /  1001.9hPa ENE 8.1mph /  13.0km/h 15.2mph /  24.5km/h 52% 0in /  0.0mm
08:58 23.7 °F /  -4.6 °C 8.6 °F /  -13.0 °C 29.6in /  1001.9hPa East 12.8mph /  20.6km/h 16.3mph /  26.2km/h 53% 0in /  0.0mm
09:03 23.7 °F /  -4.6 °C 8.6 °F /  -13.0 °C 29.6in /  1000.9hPa ENE 12.3mph /  19.8km/h 16.3mph /  26.2km/h 54% 0in /  0.0mm
09:08 23.7 °F /  -4.6 °C 8.6 °F /  -13.0 °C 29.6in /  1000.9hPa East 15.4mph /  24.8km/h 15.4mph /  24.8km/h 54% 0in /  0.0mm
09:13 23.9 °F /  -4.5 °C 8.6 °F /  -13.0 °C 29.6in /  1000.9hPa ENE 8.5mph /  13.7km/h 17mph /  27.4km/h 53% 0in /  0.0mm
09:18 24.1 °F /  -4.4 °C 8.6 °F /  -13.0 °C 29.6in /  1000.9hPa East 13.2mph /  21.2km/h 17.7mph /  28.5km/h 53% 0in /  0.0mm
09:19 24.1 °F /  -4.4 °C 8.6 °F /  -13.0 °C 29.6in /  1000.9hPa East 10.3mph /  16.6km/h 17.7mph /  28.5km/h 53% 0in /  0.0mm
09:24 24.3 °F /  -4.3 °C 8.6 °F /  -13.0 °C 29.6in /  1000.9hPa East 14.8mph /  23.8km/h 18.6mph /  29.9km/h 52% 0in /  0.0mm
09:29 24.4 °F /  -4.2 °C 8.6 °F /  -13.0 °C 29.6in /  1000.9hPa East 11.4mph /  18.3km/h 20.4mph /  32.8km/h 52% 0in /  0.0mm
09:34 24.4 °F /  -4.2 °C 8.6 °F /  -13.0 °C 29.6in /  1000.9hPa ESE 15.9mph /  25.6km/h 20.4mph /  32.8km/h 51% 0in /  0.0mm
09:37 24.4 °F /  -4.2 °C 8.6 °F /  -13.0 °C 29.6in /  1000.9hPa ENE 12.3mph /  19.8km/h 18.6mph /  29.9km/h 51% 0in /  0.0mm
09:42 24.6 °F /  -4.1 °C 8.6 °F /  -13.0 °C 29.6in /  1000.9hPa ENE 7.8mph /  12.6km/h 18.6mph /  29.9km/h 51% 0in /  0.0mm
09:47 24.6 °F /  -4.1 °C 8.6 °F /  -13.0 °C 29.6in /  1000.9hPa East 10.1mph /  16.3km/h 17mph /  27.4km/h 51% 0in /  0.0mm
09:52 24.6 °F /  -4.1 °C 8.6 °F /  -13.0 °C 29.6in /  1000.9hPa East 13.2mph /  21.2km/h 15.9mph /  25.6km/h 51% 0in /  0.0mm
09:57 24.8 °F /  -4.0 °C 8.6 °F /  -13.0 °C 29.6in /  1000.9hPa East 14.8mph /  23.8km/h 15.9mph /  25.6km/h 51% 0in /  0.0mm
10:02 25 °F /  -3.9 °C 8.6 °F /  -13.0 °C 29.6in /  1000.9hPa East 11mph /  17.7km/h 17.2mph /  27.7km/h 50% 0in /  0.0mm
10:08 25 °F /  -3.9 °C 8.6 °F /  -13.0 °C 29.6in /  1000.9hPa East 15.4mph /  24.8km/h 17.7mph /  28.5km/h 49% 0in /  0.0mm
10:13 25 °F /  -3.9 °C 8.6 °F /  -13.0 °C 29.6in /  1000.9hPa ENE 10.7mph /  17.2km/h 18.6mph /  29.9km/h 49% 0in /  0.0mm
10:18 25.2 °F /  -3.8 °C 8.6 °F /  -13.0 °C 29.6in /  1000.9hPa East 17mph /  27.4km/h 19mph /  30.6km/h 49% 0in /  0.0mm
10:19 25.2 °F /  -3.8 °C 8.6 °F /  -13.0 °C 29.6in /  1000.9hPa ENE 10.7mph /  17.2km/h 19mph /  30.6km/h 50% 0in /  0.0mm
10:24 25.3 °F /  -3.7 °C 8.6 °F /  -13.0 °C 29.6in /  1000.9hPa ESE 6.3mph /  10.1km/h 19mph /  30.6km/h 49% 0in /  0.0mm
10:29 25.5 °F /  -3.6 °C 8.6 °F /  -13.0 °C 29.6in /  1000.9hPa ESE 8.5mph /  13.7km/h 16.8mph /  27.0km/h 50% 0in /  0.0mm
10:34 25.5 °F /  -3.6 °C 8.6 °F /  -13.0 °C 29.6in /  1000.9hPa ENE 10.3mph /  16.6km/h 14.8mph /  23.8km/h 49% 0in /  0.0mm
10:35 25.7 °F /  -3.5 °C 8.6 °F /  -13.0 °C 29.6in /  1000.9hPa ESE 12.3mph /  19.8km/h 14.8mph /  23.8km/h 49% 0in /  0.0mm
10:39 25.7 °F /  -3.5 °C 8.6 °F /  -13.0 °C 29.6in /  1000.9hPa ENE 10.5mph /  16.9km/h 17.7mph /  28.5km/h 49% 0in /  0.0mm
10:40 25.7 °F /  -3.5 °C 8.6 °F /  -13.0 °C 29.6in /  1000.9hPa East 11mph /  17.7km/h 17.7mph /  28.5km/h 49% 0in /  0.0mm
10:45 25.7 °F /  -3.5 °C 8.6 °F /  -13.0 °C 29.6in /  1000.9hPa ENE 13.2mph /  21.2km/h 19.9mph /  32.0km/h 48% 0in /  0.0mm
10:50 25.9 °F /  -3.4 °C 8.6 °F /  -13.0 °C 29.6in /  1000.9hPa East 13.2mph /  21.2km/h 19.9mph /  32.0km/h 49% 0in /  0.0mm
10:55 25.9 °F /  -3.4 °C 8.6 °F /  -13.0 °C 29.6in /  1000.9hPa East 12.3mph /  19.8km/h 23.9mph /  38.5km/h 49% 0in /  0.0mm
11:00 26.1 °F /  -3.3 °C 8.6 °F /  -13.0 °C 29.6in /  1000.9hPa East 7.8mph /  12.6km/h 23.9mph /  38.5km/h 49% 0in /  0.0mm
11:05 26.2 °F /  -3.2 °C 8.6 °F /  -13.0 °C 29.6in /  1000.9hPa East 10.7mph /  17.2km/h 17.7mph /  28.5km/h 49% 0in /  0.0mm
11:10 26.4 °F /  -3.1 °C 8.6 °F /  -13.0 °C 29.6in /  1000.9hPa ESE 10.7mph /  17.2km/h 19.7mph /  31.7km/h 49% 0in /  0.0mm
11:15 26.8 °F /  -2.9 °C 8.6 °F /  -13.0 °C 29.6in /  1000.9hPa ESE 10.3mph /  16.6km/h 19.7mph /  31.7km/h 49% 0in /  0.0mm
11:20 27 °F /  -2.8 °C 10.4 °F /  -12.0 °C 29.6in /  1000.9hPa ENE 9.8mph /  15.8km/h 17.4mph /  28.0km/h 50% 0in /  0.0mm
11:25 27 °F /  -2.8 °C 10.4 °F /  -12.0 °C 29.6in /  1000.9hPa East 12.5mph /  20.1km/h 18.6mph /  29.9km/h 50% 0in /  0.0mm
11:30 27.1 °F /  -2.7 °C 10.4 °F /  -12.0 °C 29.6in /  1000.9hPa ENE 16.8mph /  27.0km/h 18.6mph /  29.9km/h 49% 0in /  0.0mm
11:35 27.5 °F /  -2.5 °C 10.4 °F /  -12.0 °C 29.6in /  1000.9hPa ESE 13mph /  20.9km/h 17.4mph /  28.0km/h 49% 0in /  0.0mm
11:40 27.7 °F /  -2.4 °C 10.4 °F /  -12.0 °C 29.6in /  1000.9hPa East 14.5mph /  23.3km/h 21.3mph /  34.3km/h 49% 0in /  0.0mm
11:45 27.9 °F /  -2.3 °C 10.4 °F /  -12.0 °C 29.6in /  1000.9hPa NE 6mph /  9.7km/h 21.3mph /  34.3km/h 48% 0in /  0.0mm
11:50 28 °F /  -2.2 °C 10.4 °F /  -12.0 °C 29.6in /  1000.9hPa East 8.7mph /  14.0km/h 15.4mph /  24.8km/h 48% 0in /  0.0mm
11:56 28 °F /  -2.2 °C 10.4 °F /  -12.0 °C 29.6in /  1000.9hPa East 10.7mph /  17.2km/h 17mph /  27.4km/h 47% 0in /  0.0mm
12:01 28.2 °F /  -2.1 °C 10.4 °F /  -12.0 °C 29.6in /  1000.9hPa ENE 13.2mph /  21.2km/h 18.1mph /  29.1km/h 47% 0in /  0.0mm
12:06 28.6 °F /  -1.9 °C 10.4 °F /  -12.0 °C 29.6in /  1000.9hPa ENE 13mph /  20.9km/h 18.1mph /  29.1km/h 46% 0in /  0.0mm
12:11 28.8 °F /  -1.8 °C 10.4 °F /  -12.0 °C 29.6in /  1000.9hPa East 14.5mph /  23.3km/h 17.4mph /  28.0km/h 46% 0in /  0.0mm
12:16 29.1 °F /  -1.6 °C 10.4 °F /  -12.0 °C 29.5in /  999.9hPa ESE 15.7mph /  25.3km/h 17.4mph /  28.0km/h 46% 0in /  0.0mm
12:21 29.1 °F /  -1.6 °C 10.4 °F /  -12.0 °C 29.5in /  999.9hPa ENE 15.4mph /  24.8km/h 19.9mph /  32.0km/h 45% 0in /  0.0mm
12:26 29.5 °F /  -1.4 °C 10.4 °F /  -12.0 °C 29.5in /  999.9hPa East 12.5mph /  20.1km/h 19.9mph /  32.0km/h 45% 0in /  0.0mm
12:31 29.8 °F /  -1.2 °C 10.4 °F /  -12.0 °C 29.5in /  998.9hPa East 10.3mph /  16.6km/h 20.6mph /  33.1km/h 45% 0in /  0.0mm
12:36 30 °F /  -1.1 °C 10.4 °F /  -12.0 °C 29.5in /  998.9hPa ENE 10.7mph /  17.2km/h 20.6mph /  33.1km/h 45% 0in /  0.0mm
12:41 30.4 °F /  -0.9 °C 10.4 °F /  -12.0 °C 29.5in /  998.9hPa ENE 11.2mph /  18.0km/h 17.7mph /  28.5km/h 45% 0in /  0.0mm
12:46 30.6 °F /  -0.8 °C 10.4 °F /  -12.0 °C 29.5in /  998.9hPa East 10.1mph /  16.3km/h 17.7mph /  28.5km/h 44% 0in /  0.0mm
12:51 30.6 °F /  -0.8 °C 10.4 °F /  -12.0 °C 29.5in /  998.9hPa East 12.3mph /  19.8km/h 16.6mph /  26.7km/h 44% 0in /  0.0mm
12:56 30.7 °F /  -0.7 °C 10.4 °F /  -12.0 °C 29.5in /  998.9hPa ESE 13mph /  20.9km/h 17.4mph /  28.0km/h 44% 0in /  0.0mm
13:01 31.1 °F /  -0.5 °C 10.4 °F /  -12.0 °C 29.5in /  998.9hPa ENE 10.1mph /  16.3km/h 17.7mph /  28.5km/h 44% 0in /  0.0mm
13:06 31.3 °F /  -0.4 °C 10.4 °F /  -12.0 °C 29.5in /  998.9hPa ENE 14.8mph /  23.8km/h 17.7mph /  28.5km/h 44% 0in /  0.0mm
13:11 31.5 °F /  -0.3 °C 10.4 °F /  -12.0 °C 29.5in /  998.9hPa East 12.3mph /  19.8km/h 19mph /  30.6km/h 44% 0in /  0.0mm
13:16 31.6 °F /  -0.2 °C 12.2 °F /  -11.0 °C 29.5in /  998.9hPa NE 15.2mph /  24.5km/h 20.1mph /  32.3km/h 44% 0in /  0.0mm
13:21 31.8 °F /  -0.1 °C 12.2 °F /  -11.0 °C 29.5in /  998.9hPa NE 11mph /  17.7km/h 20.1mph /  32.3km/h 44% 0in /  0.0mm
13:26 32.4 °F /  0.2 °C 14 °F /  -10.0 °C 29.5in /  998.9hPa East 8.5mph /  13.7km/h 17.7mph /  28.5km/h 44% 0in /  0.0mm
13:31 32.5 °F /  0.3 °C 12.2 °F /  -11.0 °C 29.5in /  998.9hPa East 12.8mph /  20.6km/h 17.2mph /  27.7km/h 43% 0in /  0.0mm
13:36 32.5 °F /  0.3 °C 12.2 °F /  -11.0 °C 29.5in /  998.9hPa ENE 12.5mph /  20.1km/h 17.4mph /  28.0km/h 43% 0in /  0.0mm
13:41 32.5 °F /  0.3 °C 12.2 °F /  -11.0 °C 29.5in /  998.9hPa East 14.1mph /  22.7km/h 19.9mph /  32.0km/h 43% 0in /  0.0mm
13:46 32.5 °F /  0.3 °C 12.2 °F /  -11.0 °C 29.5in /  998.9hPa East 13mph /  20.9km/h 19.9mph /  32.0km/h 43% 0in /  0.0mm
13:51 32.5 °F /  0.3 °C 12.2 °F /  -11.0 °C 29.5in /  998.9hPa East 15.7mph /  25.3km/h 19.5mph /  31.4km/h 43% 0in /  0.0mm
13:56 32.5 °F /  0.3 °C 12.2 °F /  -11.0 °C 29.5in /  998.9hPa ESE 17.7mph /  28.5km/h 19.5mph /  31.4km/h 42% 0in /  0.0mm
14:01 32.5 °F /  0.3 °C 12.2 °F /  -11.0 °C 29.5in /  998.9hPa ENE 10.1mph /  16.3km/h 17.7mph /  28.5km/h 42% 0in /  0.0mm
14:06 32.5 °F /  0.3 °C 12.2 °F /  -11.0 °C 29.5in /  998.9hPa East 12.3mph /  19.8km/h 16.6mph /  26.7km/h 42% 0in /  0.0mm
14:12 32.5 °F /  0.3 °C 12.2 °F /  -11.0 °C 29.5in /  998.9hPa ENE 8.5mph /  13.7km/h 16.6mph /  26.7km/h 42% 0in /  0.0mm
14:17 32.5 °F /  0.3 °C 12.2 °F /  -11.0 °C 29.5in /  998.9hPa ESE 8.5mph /  13.7km/h 15.9mph /  25.6km/h 42% 0in /  0.0mm
14:22 32.5 °F /  0.3 °C 12.2 °F /  -11.0 °C 29.5in /  998.9hPa East 12.3mph /  19.8km/h 15.4mph /  24.8km/h 42% 0in /  0.0mm
14:27 32.7 °F /  0.4 °C 12.2 °F /  -11.0 °C 29.5in /  998.9hPa NE 6.5mph /  10.5km/h 15.4mph /  24.8km/h 42% 0in /  0.0mm
14:32 32.7 °F /  0.4 °C 12.2 °F /  -11.0 °C 29.5in /  997.9hPa ENE 15.9mph /  25.6km/h 17.2mph /  27.7km/h 42% 0in /  0.0mm
14:37 32.9 °F /  0.5 °C 12.2 °F /  -11.0 °C 29.5in /  997.9hPa ESE 13.9mph /  22.4km/h 17.2mph /  27.7km/h 42% 0in /  0.0mm
14:42 33.1 °F /  0.6 °C 12.2 °F /  -11.0 °C 29.5in /  997.9hPa East 8.1mph /  13.0km/h 16.6mph /  26.7km/h 42% 0in /  0.0mm
14:47 33.1 °F /  0.6 °C 12.2 °F /  -11.0 °C 29.5in /  997.9hPa East 9.6mph /  15.4km/h 14.8mph /  23.8km/h 42% 0in /  0.0mm
14:52 33.3 °F /  0.7 °C 12.2 °F /  -11.0 °C 29.5in /  997.9hPa East 15.2mph /  24.5km/h 19.9mph /  32.0km/h 42% 0in /  0.0mm
14:57 33.3 °F /  0.7 °C 12.2 °F /  -11.0 °C 29.5in /  997.9hPa East 9.8mph /  15.8km/h 19.9mph /  32.0km/h 42% 0in /  0.0mm
15:02 33.4 °F /  0.8 °C 12.2 °F /  -11.0 °C 29.5in /  997.9hPa NE 12.5mph /  20.1km/h 15.9mph /  25.6km/h 41% 0in /  0.0mm
15:07 33.4 °F /  0.8 °C 12.2 °F /  -11.0 °C 29.5in /  997.9hPa ENE 10.7mph /  17.2km/h 17.7mph /  28.5km/h 41% 0in /  0.0mm
15:12 33.6 °F /  0.9 °C 12.2 °F /  -11.0 °C 29.5in /  997.9hPa ESE 12.3mph /  19.8km/h 17.7mph /  28.5km/h 41% 0in /  0.0mm
15:17 33.6 °F /  0.9 °C 12.2 °F /  -11.0 °C 29.4in /  996.8hPa East 9.8mph /  15.8km/h 17.7mph /  28.5km/h 41% 0in /  0.0mm
15:22 33.6 °F /  0.9 °C 12.2 °F /  -11.0 °C 29.4in /  996.8hPa East 8.9mph /  14.3km/h 16.8mph /  27.0km/h 41% 0in /  0.0mm
15:27 33.8 °F /  1.0 °C 12.2 °F /  -11.0 °C 29.4in /  996.8hPa East 13.4mph /  21.6km/h 17.4mph /  28.0km/h 41% 0in /  0.0mm
15:32 33.8 °F /  1.0 °C 12.2 °F /  -11.0 °C 29.4in /  996.8hPa NE 7.6mph /  12.2km/h 17.4mph /  28.0km/h 40% 0in /  0.0mm
15:37 34 °F /  1.1 °C 12.2 °F /  -11.0 °C 29.4in /  996.8hPa East 11.2mph /  18.0km/h 17.4mph /  28.0km/h 41% 0in /  0.0mm
15:42 33.8 °F /  1.0 °C 12.2 °F /  -11.0 °C 29.4in /  996.8hPa ENE 12.5mph /  20.1km/h 18.1mph /  29.1km/h 40% 0in /  0.0mm
15:48 33.8 °F /  1.0 °C 12.2 °F /  -11.0 °C 29.4in /  996.8hPa ENE 7.8mph /  12.6km/h 18.1mph /  29.1km/h 40% 0in /  0.0mm
15:53 33.8 °F /  1.0 °C 12.2 °F /  -11.0 °C 29.4in /  996.8hPa East 12.3mph /  19.8km/h 17.2mph /  27.7km/h 40% 0in /  0.0mm
15:58 33.8 °F /  1.0 °C 12.2 °F /  -11.0 °C 29.4in /  996.8hPa East 13mph /  20.9km/h 19.2mph /  30.9km/h 40% 0in /  0.0mm
16:03 33.8 °F /  1.0 °C 12.2 °F /  -11.0 °C 29.4in /  996.8hPa East 10.1mph /  16.3km/h 19.2mph /  30.9km/h 40% 0in /  0.0mm
16:08 33.8 °F /  1.0 °C 12.2 °F /  -11.0 °C 29.4in /  996.8hPa NE 10.5mph /  16.9km/h 17mph /  27.4km/h 40% 0in /  0.0mm
16:13 33.8 °F /  1.0 °C 12.2 °F /  -11.0 °C 29.4in /  996.8hPa East 12.5mph /  20.1km/h 15.4mph /  24.8km/h 40% 0in /  0.0mm
16:18 33.8 °F /  1.0 °C 12.2 °F /  -11.0 °C 29.4in /  996.8hPa ENE 7.8mph /  12.6km/h 16.6mph /  26.7km/h 40% 0in /  0.0mm
16:23 33.8 °F /  1.0 °C 12.2 °F /  -11.0 °C 29.4in /  996.8hPa East 12.3mph /  19.8km/h 19.5mph /  31.4km/h 40% 0in /  0.0mm
16:28 33.8 °F /  1.0 °C 12.2 °F /  -11.0 °C 29.4in /  996.8hPa NE 14.8mph /  23.8km/h 19.5mph /  31.4km/h 40% 0in /  0.0mm
16:33 33.8 °F /  1.0 °C 12.2 °F /  -11.0 °C 29.4in /  996.8hPa East 8.1mph /  13.0km/h 17.7mph /  28.5km/h 40% 0in /  0.0mm
16:38 33.8 °F /  1.0 °C 12.2 °F /  -11.0 °C 29.4in /  996.8hPa East 7.4mph /  11.9km/h 16.1mph /  25.9km/h 40% 0in /  0.0mm
16:43 33.8 °F /  1.0 °C 12.2 °F /  -11.0 °C 29.4in /  996.8hPa ENE 11.9mph /  19.1km/h 15.4mph /  24.8km/h 40% 0in /  0.0mm
16:48 34 °F /  1.1 °C 12.2 °F /  -11.0 °C 29.4in /  996.8hPa East 12.8mph /  20.6km/h 15.4mph /  24.8km/h 40% 0in /  0.0mm
16:53 34 °F /  1.1 °C 12.2 °F /  -11.0 °C 29.4in /  996.8hPa ESE 10.7mph /  17.2km/h 19.7mph /  31.7km/h 40% 0in /  0.0mm
16:58 34.2 °F /  1.2 °C 12.2 °F /  -11.0 °C 29.4in /  996.8hPa ENE 13.2mph /  21.2km/h 19.7mph /  31.7km/h 40% 0in /  0.0mm
17:03 34.3 °F /  1.3 °C 12.2 °F /  -11.0 °C 29.4in /  996.8hPa ENE 10.3mph /  16.6km/h 16.6mph /  26.7km/h 40% 0in /  0.0mm
17:08 34.3 °F /  1.3 °C 12.2 °F /  -11.0 °C 29.4in /  996.8hPa East 12.8mph /  20.6km/h 17.2mph /  27.7km/h 40% 0in /  0.0mm
17:13 34.3 °F /  1.3 °C 12.2 °F /  -11.0 °C 29.4in /  996.8hPa ENE 10.5mph /  16.9km/h 17.9mph /  28.8km/h 40% 0in /  0.0mm
17:18 34.5 °F /  1.4 °C 12.2 °F /  -11.0 °C 29.4in /  996.8hPa ENE 10.5mph /  16.9km/h 17.9mph /  28.8km/h 40% 0in /  0.0mm
17:23 34.5 °F /  1.4 °C 12.2 °F /  -11.0 °C 29.4in /  996.8hPa ENE 12.3mph /  19.8km/h 15.4mph /  24.8km/h 40% 0in /  0.0mm
17:28 34.5 °F /  1.4 °C 12.2 °F /  -11.0 °C 29.4in /  996.8hPa ESE 12.8mph /  20.6km/h 13.4mph /  21.6km/h 40% 0in /  0.0mm
17:33 34.5 °F /  1.4 °C 12.2 °F /  -11.0 °C 29.4in /  996.8hPa East 11mph /  17.7km/h 17mph /  27.4km/h 40% 0in /  0.0mm
17:38 34.5 °F /  1.4 °C 12.2 °F /  -11.0 °C 29.4in /  996.8hPa East 10.1mph /  16.3km/h 17.2mph /  27.7km/h 40% 0in /  0.0mm
17:43 34.5 °F /  1.4 °C 12.2 °F /  -11.0 °C 29.4in /  996.8hPa ENE 12.8mph /  20.6km/h 17.2mph /  27.7km/h 40% 0in /  0.0mm
17:48 34.5 °F /  1.4 °C 12.2 °F /  -11.0 °C 29.4in /  996.8hPa East 10.5mph /  16.9km/h 15.9mph /  25.6km/h 40% 0in /  0.0mm
17:53 34.5 °F /  1.4 °C 12.2 °F /  -11.0 °C 29.4in /  996.8hPa East 12.3mph /  19.8km/h 14.3mph /  23.0km/h 40% 0in /  0.0mm
17:58 34.5 °F /  1.4 °C 12.2 °F /  -11.0 °C 29.4in /  996.8hPa ENE 8.7mph /  14.0km/h 17mph /  27.4km/h 39% 0in /  0.0mm
18:03 34.5 °F /  1.4 °C 12.2 °F /  -11.0 °C 29.4in /  996.2hPa ENE 10.7mph /  17.2km/h 17mph /  27.4km/h 40% 0in /  0.0mm
18:09 34.5 °F /  1.4 °C 12.2 °F /  -11.0 °C 29.4in /  996.2hPa East 12.5mph /  20.1km/h 19.5mph /  31.4km/h 39% 0in /  0.0mm
18:14 34.5 °F /  1.4 °C 12.2 °F /  -11.0 °C 29.4in /  996.2hPa East 12.8mph /  20.6km/h 19.5mph /  31.4km/h 39% 0in /  0.0mm
18:19 34.5 °F /  1.4 °C 12.2 °F /  -11.0 °C 29.4in /  996.2hPa NNE 10.1mph /  16.3km/h 22.1mph /  35.6km/h 40% 0in /  0.0mm
18:24 34.5 °F /  1.4 °C 12.2 °F /  -11.0 °C 29.4in /  996.2hPa ENE 8.7mph /  14.0km/h 22.1mph /  35.6km/h 40% 0in /  0.0mm
18:29 34.5 °F /  1.4 °C 12.2 °F /  -11.0 °C 29.4in /  995.1hPa East 7.6mph /  12.2km/h 15.9mph /  25.6km/h 39% 0in /  0.0mm
18:34 34.5 °F /  1.4 °C 12.2 °F /  -11.0 °C 29.4in /  995.1hPa East 10.1mph /  16.3km/h 13.4mph /  21.6km/h 39% 0in /  0.0mm
18:39 34.5 °F /  1.4 °C 12.2 °F /  -11.0 °C 29.4in /  995.1hPa ENE 12.3mph /  19.8km/h 13.9mph /  22.4km/h 39% 0in /  0.0mm
18:44 34.5 °F /  1.4 °C 12.2 °F /  -11.0 °C 29.4in /  995.1hPa East 14.3mph /  23.0km/h 19.9mph /  32.0km/h 39% 0in /  0.0mm
18:49 34.5 °F /  1.4 °C 12.2 °F /  -11.0 °C 29.4in /  995.1hPa East 9.4mph /  15.1km/h 19.9mph /  32.0km/h 39% 0in /  0.0mm
18:54 34.5 °F /  1.4 °C 12.2 °F /  -11.0 °C 29.4in /  995.1hPa ENE 13.2mph /  21.2km/h 23.7mph /  38.1km/h 39% 0in /  0.0mm
18:59 34.5 °F /  1.4 °C 12.2 °F /  -11.0 °C 29.4in /  996.2hPa East 11.2mph /  18.0km/h 23.7mph /  38.1km/h 39% 0in /  0.0mm
19:04 34.5 °F /  1.4 °C 12.2 °F /  -11.0 °C 29.4in /  996.2hPa East 7.8mph /  12.6km/h 19.7mph /  31.7km/h 39% 0in /  0.0mm
19:09 34.5 °F /  1.4 °C 12.2 °F /  -11.0 °C 29.4in /  996.2hPa ENE 12.8mph /  20.6km/h 17.7mph /  28.5km/h 39% 0in /  0.0mm
19:14 34.5 °F /  1.4 °C 12.2 °F /  -11.0 °C 29.4in /  996.2hPa East 13mph /  20.9km/h 17.7mph /  28.5km/h 39% 0in /  0.0mm
19:19 34.5 °F /  1.4 °C 12.2 °F /  -11.0 °C 29.4in /  996.2hPa ENE 10.7mph /  17.2km/h 17.7mph /  28.5km/h 39% 0in /  0.0mm
19:24 34.5 °F /  1.4 °C 12.2 °F /  -11.0 °C 29.4in /  996.2hPa NE 10.5mph /  16.9km/h 17.7mph /  28.5km/h 39% 0in /  0.0mm
19:29 34.3 °F /  1.3 °C 12.2 °F /  -11.0 °C 29.4in /  996.2hPa ENE 17mph /  27.4km/h 18.1mph /  29.1km/h 39% 0in /  0.0mm
19:34 34.3 °F /  1.3 °C 12.2 °F /  -11.0 °C 29.4in /  996.2hPa East 9.8mph /  15.8km/h 19.5mph /  31.4km/h 39% 0in /  0.0mm
19:39 34.3 °F /  1.3 °C 12.2 °F /  -11.0 °C 29.4in /  996.2hPa ENE 17mph /  27.4km/h 19.5mph /  31.4km/h 39% 0in /  0.0mm
19:44 34.3 °F /  1.3 °C 12.2 °F /  -11.0 °C 29.4in /  995.1hPa ENE 13.2mph /  21.2km/h 20.8mph /  33.5km/h 39% 0in /  0.0mm
19:49 34.3 °F /  1.3 °C 12.2 °F /  -11.0 °C 29.4in /  995.1hPa East 12.3mph /  19.8km/h 20.8mph /  33.5km/h 39% 0in /  0.0mm
19:54 34.3 °F /  1.3 °C 12.2 °F /  -11.0 °C 29.4in /  995.1hPa ENE 10.3mph /  16.6km/h 17.7mph /  28.5km/h 39% 0in /  0.0mm
19:59 34.3 °F /  1.3 °C 12.2 °F /  -11.0 °C 29.4in /  995.1hPa ENE 15.9mph /  25.6km/h 17.7mph /  28.5km/h 39% 0in /  0.0mm
20:04 34.3 °F /  1.3 °C 12.2 °F /  -11.0 °C 29.4in /  995.1hPa NE 10.1mph /  16.3km/h 15.9mph /  25.6km/h 39% 0in /  0.0mm
20:09 34.3 °F /  1.3 °C 12.2 °F /  -11.0 °C 29.4in /  995.1hPa ESE 12.5mph /  20.1km/h 17.7mph /  28.5km/h 38% 0in /  0.0mm
20:15 34.3 °F /  1.3 °C 12.2 °F /  -11.0 °C 29.4in /  995.1hPa ENE 8.9mph /  14.3km/h 17.7mph /  28.5km/h 39% 0in /  0.0mm
20:20 34.3 °F /  1.3 °C 12.2 °F /  -11.0 °C 29.4in /  995.1hPa ESE 14.3mph /  23.0km/h 20.1mph /  32.3km/h 38% 0in /  0.0mm
20:25 34.3 °F /  1.3 °C 12.2 °F /  -11.0 °C 29.4in /  995.1hPa East 13.2mph /  21.2km/h 20.1mph /  32.3km/h 38% 0in /  0.0mm
20:30 34.3 °F /  1.3 °C 12.2 °F /  -11.0 °C 29.4in /  995.1hPa ENE 15.2mph /  24.5km/h 17mph /  27.4km/h 39% 0in /  0.0mm
20:35 34.3 °F /  1.3 °C 12.2 °F /  -11.0 °C 29.4in /  995.1hPa East 14.5mph /  23.3km/h 17mph /  27.4km/h 38% 0in /  0.0mm
20:40 34.3 °F /  1.3 °C 12.2 °F /  -11.0 °C 29.4in /  995.1hPa East 11mph /  17.7km/h 18.6mph /  29.9km/h 38% 0in /  0.0mm
20:45 34.3 °F /  1.3 °C 12.2 °F /  -11.0 °C 29.4in /  995.1hPa East 12.8mph /  20.6km/h 18.6mph /  29.9km/h 38% 0in /  0.0mm
20:50 34.3 °F /  1.3 °C 12.2 °F /  -11.0 °C 29.4in /  995.1hPa East 10.7mph /  17.2km/h 16.8mph /  27.0km/h 38% 0in /  0.0mm
20:55 34.3 °F /  1.3 °C 12.2 °F /  -11.0 °C 29.4in /  995.1hPa East 12.3mph /  19.8km/h 17.7mph /  28.5km/h 38% 0in /  0.0mm
21:00 34.3 °F /  1.3 °C 12.2 °F /  -11.0 °C 29.4in /  994.1hPa East 10.5mph /  16.9km/h 18.1mph /  29.1km/h 38% 0in /  0.0mm
21:05 34.3 °F /  1.3 °C 12.2 °F /  -11.0 °C 29.4in /  994.1hPa East 7.4mph /  11.9km/h 18.1mph /  29.1km/h 38% 0in /  0.0mm
21:10 34.3 °F /  1.3 °C 12.2 °F /  -11.0 °C 29.4in /  994.1hPa East 8.7mph /  14.0km/h 15.2mph /  24.5km/h 38% 0in /  0.0mm
21:15 34.3 °F /  1.3 °C 12.2 °F /  -11.0 °C 29.4in /  995.1hPa ENE 7.8mph /  12.6km/h 17.7mph /  28.5km/h 38% 0in /  0.0mm
21:20 34.3 °F /  1.3 °C 12.2 °F /  -11.0 °C 29.4in /  995.1hPa ENE 11mph /  17.7km/h 17.7mph /  28.5km/h 38% 0in /  0.0mm
21:25 34.3 °F /  1.3 °C 12.2 °F /  -11.0 °C 29.4in /  995.1hPa ENE 12.3mph /  19.8km/h 13.4mph /  21.6km/h 38% 0in /  0.0mm
21:31 34.3 °F /  1.3 °C 12.2 °F /  -11.0 °C 29.4in /  994.1hPa East 13.6mph /  21.9km/h 16.8mph /  27.0km/h 38% 0in /  0.0mm
21:36 34.3 °F /  1.3 °C 12.2 °F /  -11.0 °C 29.4in /  994.1hPa ENE 10.1mph /  16.3km/h 16.8mph /  27.0km/h 38% 0in /  0.0mm
21:41 34.2 °F /  1.2 °C 12.2 °F /  -11.0 °C 29.4in /  994.1hPa East 8.5mph /  13.7km/h 13mph /  20.9km/h 39% 0in /  0.0mm
21:46 34.3 °F /  1.3 °C 12.2 °F /  -11.0 °C 29.4in /  995.1hPa ESE 13.9mph /  22.4km/h 17.7mph /  28.5km/h 38% 0in /  0.0mm
21:51 34.3 °F /  1.3 °C 12.2 °F /  -11.0 °C 29.4in /  995.1hPa ENE 12.5mph /  20.1km/h 17.7mph /  28.5km/h 38% 0in /  0.0mm
21:56 34.2 °F /  1.2 °C 12.2 °F /  -11.0 °C 29.4in /  995.1hPa East 8.5mph /  13.7km/h 17.4mph /  28.0km/h 39% 0in /  0.0mm
22:01 34.2 °F /  1.2 °C 12.2 °F /  -11.0 °C 29.4in /  995.1hPa East 7.8mph /  12.6km/h 15.4mph /  24.8km/h 38% 0in /  0.0mm
22:06 34.2 °F /  1.2 °C 12.2 °F /  -11.0 °C 29.4in /  995.1hPa ENE 11mph /  17.7km/h 17mph /  27.4km/h 38% 0in /  0.0mm
22:11 34.2 °F /  1.2 °C 12.2 °F /  -11.0 °C 29.4in /  995.1hPa ENE 7.6mph /  12.2km/h 17mph /  27.4km/h 39% 0in /  0.0mm
22:16 34.2 °F /  1.2 °C 12.2 °F /  -11.0 °C 29.4in /  996.2hPa ESE 10.7mph /  17.2km/h 14.5mph /  23.3km/h 39% 0in /  0.0mm
22:21 34.2 °F /  1.2 °C 12.2 °F /  -11.0 °C 29.4in /  996.2hPa East 11mph /  17.7km/h 16.6mph /  26.7km/h 39% 0in /  0.0mm
22:26 34.2 °F /  1.2 °C 12.2 °F /  -11.0 °C 29.4in /  996.2hPa NNE 14.5mph /  23.3km/h 16.6mph /  26.7km/h 39% 0in /  0.0mm
22:31 34 °F /  1.1 °C 12.2 °F /  -11.0 °C 29.4in /  994.1hPa ENE 8.7mph /  14.0km/h 17.2mph /  27.7km/h 39% 0in /  0.0mm
22:36 34 °F /  1.1 °C 12.2 °F /  -11.0 °C 29.4in /  994.1hPa East 10.5mph /  16.9km/h 17.2mph /  27.7km/h 39% 0in /  0.0mm
22:41 34 °F /  1.1 °C 12.2 °F /  -11.0 °C 29.4in /  994.1hPa ENE 13.2mph /  21.2km/h 15.2mph /  24.5km/h 39% 0in /  0.0mm
22:46 34 °F /  1.1 °C 12.2 °F /  -11.0 °C 29.4in /  994.1hPa East 10.1mph /  16.3km/h 15.2mph /  24.5km/h 39% 0in /  0.0mm
22:51 33.8 °F /  1.0 °C 12.2 °F /  -11.0 °C 29.4in /  994.1hPa East 9.8mph /  15.8km/h 15.2mph /  24.5km/h 39% 0in /  0.0mm
22:56 33.8 °F /  1.0 °C 12.2 °F /  -11.0 °C 29.4in /  994.1hPa East 15.4mph /  24.8km/h 15.4mph /  24.8km/h 39% 0in /  0.0mm
23:01 33.8 °F /  1.0 °C 12.2 °F /  -11.0 °C 29.4in /  994.1hPa NE 11mph /  17.7km/h 19.9mph /  32.0km/h 39% 0in /  0.0mm
23:06 33.8 °F /  1.0 °C 12.2 °F /  -11.0 °C 29.4in /  994.1hPa East 12.5mph /  20.1km/h 19.9mph /  32.0km/h 39% 0in /  0.0mm
23:11 33.6 °F /  0.9 °C 12.2 °F /  -11.0 °C 29.4in /  994.1hPa NE 7.6mph /  12.2km/h 19.9mph /  32.0km/h 40% 0in /  0.0mm
23:16 33.6 °F /  0.9 °C 12.2 °F /  -11.0 °C 29.4in /  994.1hPa East 12.3mph /  19.8km/h 16.6mph /  26.7km/h 40% 0in /  0.0mm
23:21 33.6 °F /  0.9 °C 12.2 °F /  -11.0 °C 29.4in /  994.1hPa ENE 11.9mph /  19.1km/h 16.6mph /  26.7km/h 40% 0in /  0.0mm
23:26 33.6 °F /  0.9 °C 12.2 °F /  -11.0 °C 29.4in /  994.1hPa ENE 13.9mph /  22.4km/h 17.4mph /  28.0km/h 40% 0in /  0.0mm
23:31 33.6 °F /  0.9 °C 12.2 °F /  -11.0 °C 29.4in /  994.1hPa ENE 9.2mph /  14.8km/h 17.4mph /  28.0km/h 40% 0in /  0.0mm
23:36 33.4 °F /  0.8 °C 12.2 °F /  -11.0 °C 29.4in /  994.1hPa East 9.4mph /  15.1km/h 15.2mph /  24.5km/h 40% 0in /  0.0mm
23:41 33.4 °F /  0.8 °C 12.2 °F /  -11.0 °C 29.4in /  994.1hPa ENE 10.7mph /  17.2km/h 14.8mph /  23.8km/h 40% 0in /  0.0mm
23:46 33.4 °F /  0.8 °C 12.2 °F /  -11.0 °C 29.4in /  994.1hPa ENE 13.2mph /  21.2km/h 17.2mph /  27.7km/h 40% 0in /  0.0mm
23:51 33.4 °F /  0.8 °C 12.2 °F /  -11.0 °C 29.4in /  994.1hPa East 7.8mph /  12.6km/h 17.2mph /  27.7km/h 40% 0in /  0.0mm
23:56 33.4 °F /  0.8 °C 12.2 °F /  -11.0 °C 29.4in /  994.1hPa East 15.2mph /  24.5km/h 15.2mph /  24.5km/h 40% 0in /  0.0mm
Données Historique de Météo Turbie

Mise a jour : 23/06/2018 12:03:12
Généré par Cumulus 1.9.4 (1099)